Time;durP1;ratioP1;P1;durP2;ratioP2;P2;SDS_P1;SDS_P2;PMS_P1;PMS_P2;Temp;Humidity;BMP_temperature;BMP_pressure;BME280_temperature;BME280_humidity;BME280_pressure;Samples;Min_cycle;Max_cycle;Signal;HPM_P1;HPM_P2
2021/11/04 00:01:07;;;;;;;8.10;2.70;;;;;;;;;;5034683;28;20052;-62
2021/11/04 00:03:34;;;;;;;6.40;2.28;;;;;;;;;;5034910;28;20041;-61
2021/11/04 00:06:00;;;;;;;4.93;2.20;;;;;;;;;;5034457;28;20045;-62
2021/11/04 00:08:27;;;;;;;5.03;2.00;;;;;;;;;;5034952;28;20053;-62
2021/11/04 00:10:54;;;;;;;4.75;1.90;;;;;;;;;;5034384;28;20056;-62
2021/11/04 00:13:24;;;;;;;5.03;2.20;;;;;;;;;;5034846;28;20056;-61
2021/11/04 00:15:51;;;;;;;4.05;1.90;;;;;;;;;;5034513;28;20053;-61
2021/11/04 00:18:18;;;;;;;7.55;3.13;;;;;;;;;;5033234;28;20056;-61
2021/11/04 00:20:45;;;;;;;6.50;2.65;;;;;;;;;;5034221;28;20057;-61
2021/11/04 00:23:12;;;;;;;6.47;3.05;;;;;;;;;;5034594;28;20049;-61
2021/11/04 00:25:40;;;;;;;5.57;2.47;;;;;;;;;;5034278;28;20057;-60
2021/11/04 00:28:07;;;;;;;6.47;2.90;;;;;;;;;;5034519;28;20041;-59
2021/11/04 00:30:36;;;;;;;5.60;2.88;;;;;;;;;;5034455;28;20049;-59
2021/11/04 00:33:03;;;;;;;8.98;3.05;;;;;;;;;;5034550;28;20052;-60
2021/11/04 00:35:29;;;;;;;8.82;4.03;;;;;;;;;;5034052;28;20091;-62
2021/11/04 00:37:57;;;;;;;6.30;2.63;;;;;;;;;;5034276;28;20059;-62
2021/11/04 00:40:25;;;;;;;9.85;3.15;;;;;;;;;;5034160;28;20056;-61
2021/11/04 00:42:52;;;;;;;6.25;2.80;;;;;;;;;;5034403;28;20052;-60
2021/11/04 00:45:21;;;;;;;8.98;2.90;;;;;;;;;;5033831;28;20063;-62
2021/11/04 00:47:50;;;;;;;8.93;3.33;;;;;;;;;;5034266;28;20057;-60
2021/11/04 00:50:18;;;;;;;8.15;3.03;;;;;;;;;;5033922;28;20136;-62
2021/11/04 00:52:45;;;;;;;5.97;3.35;;;;;;;;;;5034095;28;20049;-62
2021/11/04 00:55:12;;;;;;;7.95;3.40;;;;;;;;;;5033797;28;20054;-62
2021/11/04 00:57:39;;;;;;;9.38;3.03;;;;;;;;;;5033900;28;20481;-61
2021/11/04 01:00:09;;;;;;;7.18;2.95;;;;;;;;;;5033750;28;20059;-59
2021/11/04 01:02:36;;;;;;;7.00;2.97;;;;;;;;;;5033718;28;20067;-59
2021/11/04 01:05:06;;;;;;;5.53;2.35;;;;;;;;;;5033847;28;20045;-61
2021/11/04 01:07:33;;;;;;;5.22;2.00;;;;;;;;;;5033801;28;20053;-60
2021/11/04 01:10:00;;;;;;;5.88;2.25;;;;;;;;;;5034152;28;20508;-61
2021/11/04 01:12:27;;;;;;;4.25;1.80;;;;;;;;;;5033698;28;20516;-61
2021/11/04 01:14:54;;;;;;;4.55;1.52;;;;;;;;;;5033648;28;20049;-61
2021/11/04 01:17:21;;;;;;;3.53;1.40;;;;;;;;;;5033914;28;20056;-60
2021/11/04 01:19:47;;;;;;;4.00;1.83;;;;;;;;;;5033879;28;20053;-62
2021/11/04 01:22:16;;;;;;;3.83;1.92;;;;;;;;;;5033872;28;20491;-59
2021/11/04 01:24:43;;;;;;;4.00;1.40;;;;;;;;;;5033842;28;20140;-60
2021/11/04 01:27:10;;;;;;;4.13;1.80;;;;;;;;;;5033491;28;20053;-59
2021/11/04 01:29:37;;;;;;;4.97;1.75;;;;;;;;;;5033357;28;20045;-59
2021/11/04 01:32:05;;;;;;;3.40;1.52;;;;;;;;;;5033595;28;20054;-62
2021/11/04 01:34:32;;;;;;;4.90;1.85;;;;;;;;;;5033642;28;20482;-62
2021/11/04 01:36:59;;;;;;;4.90;1.88;;;;;;;;;;5033584;28;20052;-62
2021/11/04 01:39:27;;;;;;;3.97;1.80;;;;;;;;;;5033515;28;20415;-60
2021/11/04 01:41:54;;;;;;;4.80;1.88;;;;;;;;;;5033230;28;20045;-61
2021/11/04 01:44:21;;;;;;;3.97;1.90;;;;;;;;;;5033071;28;20048;-62
2021/11/04 01:46:49;;;;;;;5.10;2.13;;;;;;;;;;5032886;28;20056;-62
2021/11/04 01:49:17;;;;;;;3.78;1.63;;;;;;;;;;5033138;28;20499;-61
2021/11/04 01:51:44;;;;;;;4.57;1.92;;;;;;;;;;5032822;28;20053;-61
2021/11/04 01:54:12;;;;;;;4.38;1.90;;;;;;;;;;5032882;28;20387;-61
2021/11/04 01:56:41;;;;;;;5.05;2.00;;;;;;;;;;5032593;28;20073;-63
2021/11/04 01:59:08;;;;;;;3.35;1.75;;;;;;;;;;5032738;28;20052;-62
2021/11/04 02:01:36;;;;;;;3.20;1.65;;;;;;;;;;5032552;28;20056;-61
2021/11/04 02:04:08;;;;;;;4.68;1.83;;;;;;;;;;5032883;28;20415;-61
2021/11/04 02:06:43;;;;;;;4.20;1.90;;;;;;;;;;5032520;28;20059;-61
2021/11/04 02:09:14;;;;;;;4.82;1.90;;;;;;;;;;5032943;28;20060;-62
2021/11/04 02:11:49;;;;;;;5.18;2.08;;;;;;;;;;5032565;28;20072;-62
2021/11/04 02:14:19;;;;;;;5.13;2.10;;;;;;;;;;5032906;28;20049;-60
2021/11/04 02:16:47;;;;;;;5.22;2.30;;;;;;;;;;5032539;28;20507;-61
2021/11/04 02:19:21;;;;;;;5.78;2.22;;;;;;;;;;5032455;28;20045;-61
2021/11/04 02:21:56;;;;;;;5.15;2.78;;;;;;;;;;5032371;28;20049;-61
2021/11/04 02:24:31;;;;;;;4.45;2.15;;;;;;;;;;5032443;28;20560;-62
2021/11/04 02:27:02;;;;;;;4.38;1.98;;;;;;;;;;5032007;28;20084;-61
2021/11/04 02:29:30;;;;;;;5.22;1.85;;;;;;;;;;5031973;28;20045;-60
2021/11/04 02:31:57;;;;;;;5.90;2.03;;;;;;;;;;5032069;28;20049;-61
2021/11/04 02:34:24;;;;;;;4.25;1.77;;;;;;;;;;5031940;28;20046;-60
2021/11/04 02:36:52;;;;;;;4.00;1.92;;;;;;;;;;5031931;28;20053;-61
2021/11/04 02:39:20;;;;;;;4.78;2.03;;;;;;;;;;5031743;28;20096;-60
2021/11/04 02:41:47;;;;;;;3.88;2.10;;;;;;;;;;5031179;28;20060;-60
2021/11/04 02:44:16;;;;;;;5.32;2.25;;;;;;;;;;5031515;28;20053;-59
2021/11/04 02:46:43;;;;;;;4.00;2.08;;;;;;;;;;5031569;28;20057;-57
2021/11/04 02:49:11;;;;;;;4.32;1.80;;;;;;;;;;5031642;28;20049;-60
2021/11/04 02:51:40;;;;;;;4.75;1.42;;;;;;;;;;5031861;28;20049;-61
2021/11/04 02:54:08;;;;;;;3.33;1.17;;;;;;;;;;5031569;28;20490;-61
2021/11/04 02:56:46;;;;;;;2.75;1.30;;;;;;;;;;5031336;28;20145;-61
2021/11/04 02:59:16;;;;;;;2.97;1.20;;;;;;;;;;5031729;28;20458;-61
2021/11/04 03:01:45;;;;;;;3.92;1.30;;;;;;;;;;5031662;28;20053;-61
2021/11/04 03:04:12;;;;;;;4.18;1.25;;;;;;;;;;5031690;28;20068;-60
2021/11/04 03:06:39;;;;;;;2.75;1.20;;;;;;;;;;5031499;28;20413;-61
2021/11/04 03:09:06;;;;;;;3.08;1.25;;;;;;;;;;5031418;28;20085;-62
2021/11/04 03:14:57;;;;;;;2.95;1.17;;;;;;;;;;5029823;28;20052;-62
2021/11/04 03:17:25;;;;;;;6.57;1.50;;;;;;;;;;5031436;28;20056;-62
2021/11/04 03:19:53;;;;;;;4.40;1.38;;;;;;;;;;5066400;23;20053;-86
2021/11/04 03:22:20;;;;;;;3.17;1.27;;;;;;;;;;5051166;28;20037;-83
2021/11/04 03:24:47;;;;;;;2.92;1.35;;;;;;;;;;5054348;28;20046;-84
2021/11/04 03:27:17;;;;;;;4.25;1.40;;;;;;;;;;5055300;28;20113;-84
2021/11/04 03:29:45;;;;;;;2.97;1.42;;;;;;;;;;5054812;28;20064;-84
2021/11/04 03:32:17;;;;;;;2.85;1.42;;;;;;;;;;5055231;28;20030;-84
2021/11/04 03:34:45;;;;;;;3.90;1.40;;;;;;;;;;5055743;28;20037;-85
2021/11/04 03:37:14;;;;;;;3.38;1.27;;;;;;;;;;5057603;28;20089;-84
2021/11/04 03:39:43;;;;;;;3.40;1.58;;;;;;;;;;5057603;28;20093;-84
2021/11/04 03:42:11;;;;;;;3.22;1.60;;;;;;;;;;5057307;28;20061;-87
2021/11/04 03:44:40;;;;;;;2.88;1.40;;;;;;;;;;5050542;28;20061;-85
2021/11/04 03:47:08;;;;;;;3.67;1.38;;;;;;;;;;5051189;28;20065;-86
2021/11/04 03:49:38;;;;;;;3.30;1.10;;;;;;;;;;5045748;28;20045;-83
2021/11/04 03:52:05;;;;;;;3.05;1.50;;;;;;;;;;5047140;28;20041;-83
2021/11/04 03:54:32;;;;;;;4.20;1.65;;;;;;;;;;5051299;28;20042;-86
2021/11/04 03:57:00;;;;;;;2.17;1.05;;;;;;;;;;5050018;28;20048;-85
2021/11/04 03:59:27;;;;;;;4.03;1.50;;;;;;;;;;5043099;28;20488;-84
2021/11/04 04:01:55;;;;;;;3.05;1.40;;;;;;;;;;5042969;28;20045;-85
2021/11/04 04:04:22;;;;;;;3.08;1.30;;;;;;;;;;5043794;28;20069;-83
2021/11/04 04:06:54;;;;;;;3.72;1.45;;;;;;;;;;5042335;28;20113;-86
2021/11/04 04:09:22;;;;;;;3.03;1.50;;;;;;;;;;5042416;28;20338;-84
2021/11/04 04:11:49;;;;;;;3.13;1.30;;;;;;;;;;5041465;28;20053;-85
2021/11/04 04:14:19;;;;;;;2.70;1.33;;;;;;;;;;5039520;28;20049;-82
2021/11/04 04:16:46;;;;;;;3.10;1.13;;;;;;;;;;5038224;28;20103;-84
2021/11/04 04:19:16;;;;;;;3.55;1.42;;;;;;;;;;5037947;28;20056;-84
2021/11/04 04:21:43;;;;;;;3.85;1.30;;;;;;;;;;5038349;28;20393;-84
2021/11/04 04:24:11;;;;;;;4.38;1.70;;;;;;;;;;5038343;28;20056;-84
2021/11/04 04:26:38;;;;;;;4.00;1.52;;;;;;;;;;5037901;28;20049;-84
2021/11/04 04:29:05;;;;;;;4.00;1.60;;;;;;;;;;5038509;28;20049;-84
2021/11/04 04:31:33;;;;;;;3.33;1.50;;;;;;;;;;5038693;28;20045;-83
2021/11/04 04:34:00;;;;;;;3.40;1.45;;;;;;;;;;5038175;28;20049;-83
2021/11/04 04:36:27;;;;;;;5.28;1.50;;;;;;;;;;5037990;28;20412;-84
2021/11/04 04:38:54;;;;;;;4.35;1.77;;;;;;;;;;5039374;28;20045;-84
2021/11/04 04:41:22;;;;;;;4.30;1.95;;;;;;;;;;5039559;28;20496;-83
2021/11/04 04:43:49;;;;;;;4.07;1.88;;;;;;;;;;5037803;28;20415;-82
2021/11/04 04:46:17;;;;;;;4.18;1.80;;;;;;;;;;5040400;28;20049;-84
2021/11/04 04:48:44;;;;;;;4.03;1.70;;;;;;;;;;5039815;28;20104;-83
2021/11/04 04:51:11;;;;;;;5.30;2.13;;;;;;;;;;5040045;28;20041;-85
2021/11/04 04:53:41;;;;;;;3.90;2.08;;;;;;;;;;5039507;28;20061;-85
2021/11/04 04:56:10;;;;;;;4.47;1.98;;;;;;;;;;5037568;28;20057;-85
2021/11/04 04:58:39;;;;;;;5.57;2.40;;;;;;;;;;5038800;28;20099;-84
2021/11/04 05:01:07;;;;;;;6.45;2.92;;;;;;;;;;5039793;28;20049;-83
2021/11/04 05:03:36;;;;;;;5.35;2.50;;;;;;;;;;5039895;28;20124;-83
2021/11/04 05:06:03;;;;;;;6.25;2.10;;;;;;;;;;5040584;28;20420;-84
2021/11/04 05:08:30;;;;;;;5.30;2.60;;;;;;;;;;5041721;28;20463;-84
2021/11/04 05:10:57;;;;;;;7.38;2.30;;;;;;;;;;5052620;28;20029;-89
2021/11/04 05:13:24;;;;;;;4.70;2.03;;;;;;;;;;5059905;28;20059;-87
2021/11/04 05:15:53;;;;;;;5.75;2.40;;;;;;;;;;5046871;28;20045;-84
2021/11/04 05:18:20;;;;;;;6.00;2.08;;;;;;;;;;5039416;28;20049;-84
2021/11/04 05:20:47;;;;;;;6.03;2.20;;;;;;;;;;5038807;28;20045;-83
2021/11/04 05:23:13;;;;;;;4.13;1.88;;;;;;;;;;5038047;28;20053;-84
2021/11/04 05:25:40;;;;;;;4.57;2.30;;;;;;;;;;5040749;28;20049;-82
2021/11/04 05:28:07;;;;;;;3.65;1.70;;;;;;;;;;5039721;28;20057;-84
2021/11/04 05:30:34;;;;;;;3.88;1.73;;;;;;;;;;5038339;28;20049;-85
2021/11/04 05:33:03;;;;;;;4.20;1.58;;;;;;;;;;5037729;28;20389;-84
2021/11/04 05:35:30;;;;;;;3.65;1.58;;;;;;;;;;5038668;28;20077;-84
2021/11/04 05:37:58;;;;;;;3.25;1.40;;;;;;;;;;5041218;28;20061;-85
2021/11/04 05:40:25;;;;;;;2.80;1.20;;;;;;;;;;5039750;28;20045;-84
2021/11/04 05:42:55;;;;;;;3.03;1.25;;;;;;;;;;5041746;28;20068;-83
2021/11/04 05:45:22;;;;;;;3.10;1.33;;;;;;;;;;5041866;28;20416;-84
2021/11/04 05:47:49;;;;;;;2.60;1.10;;;;;;;;;;5040496;28;20048;-84
2021/11/04 05:50:20;;;;;;;3.13;1.13;;;;;;;;;;5040262;28;20041;-84
2021/11/04 05:52:47;;;;;;;2.60;1.00;;;;;;;;;;5040566;28;20056;-83
2021/11/04 05:55:14;;;;;;;2.03;0.93;;;;;;;;;;5041492;28;20045;-83
2021/11/04 05:57:43;;;;;;;1.25;0.80;;;;;;;;;;5040057;28;20554;-84
2021/11/04 06:00:11;;;;;;;1.80;0.70;;;;;;;;;;5051414;28;20105;-84
2021/11/04 06:02:37;;;;;;;2.63;1.00;;;;;;;;;;5052414;28;20041;-85
2021/11/04 06:05:05;;;;;;;2.83;1.00;;;;;;;;;;5045470;28;20050;-85
2021/11/04 06:07:33;;;;;;;4.15;1.15;;;;;;;;;;5046400;28;20049;-84
2021/11/04 06:10:00;;;;;;;2.67;1.08;;;;;;;;;;5044692;28;20049;-85
2021/11/04 06:12:27;;;;;;;2.83;1.00;;;;;;;;;;5044281;28;20057;-83
2021/11/04 06:14:54;;;;;;;2.75;1.10;;;;;;;;;;5042438;28;20054;-84
2021/11/04 06:17:21;;;;;;;2.15;1.10;;;;;;;;;;5041491;28;20053;-84
2021/11/04 06:19:48;;;;;;;4.18;1.30;;;;;;;;;;5041711;28;20049;-84
2021/11/04 06:22:15;;;;;;;2.95;1.40;;;;;;;;;;5042068;28;20049;-85
2021/11/04 06:24:43;;;;;;;3.15;1.40;;;;;;;;;;5041218;28;20049;-85
2021/11/04 06:27:10;;;;;;;3.58;1.73;;;;;;;;;;5041334;28;20060;-84
2021/11/04 06:29:37;;;;;;;4.30;1.60;;;;;;;;;;5042656;28;20042;-84
2021/11/04 06:32:04;;;;;;;4.63;1.85;;;;;;;;;;5042027;28;20053;-84
2021/11/04 06:34:31;;;;;;;5.15;2.30;;;;;;;;;;5042991;28;20519;-85
2021/11/04 06:36:58;;;;;;;6.30;2.50;;;;;;;;;;5042734;28;20107;-85
2021/11/04 06:39:25;;;;;;;5.10;2.25;;;;;;;;;;5043913;28;20412;-84
2021/11/04 06:41:53;;;;;;;6.03;2.28;;;;;;;;;;5042686;28;20053;-84
2021/11/04 06:44:20;;;;;;;5.72;2.20;;;;;;;;;;5040507;28;20046;-85
2021/11/04 06:46:50;;;;;;;5.18;2.13;;;;;;;;;;5039693;28;20053;-84
2021/11/04 06:49:22;;;;;;;5.30;2.30;;;;;;;;;;5037694;28;20528;-85
2021/11/04 06:51:52;;;;;;;5.78;2.40;;;;;;;;;;5039171;28;20461;-86
2021/11/04 06:54:19;;;;;;;4.17;2.00;;;;;;;;;;5040047;28;20057;-85
2021/11/04 06:56:48;;;;;;;4.47;2.22;;;;;;;;;;5052811;28;20105;-83
2021/11/04 06:59:20;;;;;;;6.38;2.00;;;;;;;;;;5056659;28;20053;-83
2021/11/04 07:01:54;;;;;;;4.25;2.10;;;;;;;;;;5055767;28;20064;-84
2021/11/04 07:04:27;;;;;;;5.00;2.38;;;;;;;;;;5046452;28;20091;-86
2021/11/04 07:07:00;;;;;;;4.72;2.00;;;;;;;;;;5038336;28;20053;-84
2021/11/04 07:09:29;;;;;;;4.80;2.03;;;;;;;;;;5038829;28;20042;-84
2021/11/04 07:11:57;;;;;;;4.47;2.10;;;;;;;;;;5037636;28;20053;-85
2021/11/04 07:14:31;;;;;;;4.40;2.05;;;;;;;;;;5042340;28;20117;-86
2021/11/04 07:17:02;;;;;;;6.07;2.45;;;;;;;;;;5043194;28;20053;-86
2021/11/04 07:19:30;;;;;;;5.03;1.98;;;;;;;;;;5041580;28;20412;-85
2021/11/04 07:22:03;;;;;;;5.07;2.13;;;;;;;;;;5038606;28;20041;-86
2021/11/04 07:24:39;;;;;;;4.22;1.70;;;;;;;;;;5037560;28;20496;-86
2021/11/04 07:27:15;;;;;;;4.82;2.17;;;;;;;;;;5039212;28;20050;-86
2021/11/04 07:29:50;;;;;;;4.32;2.08;;;;;;;;;;5043727;28;20060;-86
2021/11/04 07:32:18;;;;;;;6.93;2.20;;;;;;;;;;5050445;28;20064;-87
2021/11/04 07:34:50;;;;;;;4.40;2.20;;;;;;;;;;5048491;28;20063;-84
2021/11/04 07:37:23;;;;;;;4.28;2.00;;;;;;;;;;5044467;28;20404;-84
2021/11/04 07:39:53;;;;;;;5.30;2.25;;;;;;;;;;5037304;28;20069;-84
2021/11/04 07:42:19;;;;;;;5.00;2.40;;;;;;;;;;5052125;28;20064;-85
2021/11/04 07:44:50;;;;;;;4.22;1.90;;;;;;;;;;5057174;28;20060;-84
2021/11/04 07:47:18;;;;;;;5.47;2.97;;;;;;;;;;5058445;28;20125;-86
2021/11/04 07:49:45;;;;;;;6.15;2.88;;;;;;;;;;5055026;28;20057;-84
2021/11/04 07:52:12;;;;;;;6.68;2.30;;;;;;;;;;5053246;28;20049;-84
2021/11/04 07:54:40;;;;;;;4.63;1.90;;;;;;;;;;5056839;28;20075;-86
2021/11/04 07:57:10;;;;;;;4.93;2.28;;;;;;;;;;5052615;28;20165;-87
2021/11/04 07:59:37;;;;;;;5.93;2.33;;;;;;;;;;5049937;28;20056;-87
2021/11/04 08:02:09;;;;;;;4.80;2.17;;;;;;;;;;5041022;28;20060;-86
2021/11/04 08:04:48;;;;;;;5.65;2.05;;;;;;;;;;5042928;28;20428;-87
2021/11/04 08:07:15;;;;;;;4.43;1.98;;;;;;;;;;5045395;28;20133;-87
2021/11/04 08:09:43;;;;;;;4.10;1.70;;;;;;;;;;5047462;28;20064;-86
2021/11/04 08:12:10;;;;;;;4.07;1.60;;;;;;;;;;5047707;28;20146;-87
2021/11/04 08:14:37;;;;;;;3.13;1.52;;;;;;;;;;5046331;28;20443;-86
2021/11/04 08:17:05;;;;;;;2.95;1.25;;;;;;;;;;5043326;28;20091;-86
2021/11/04 08:19:34;;;;;;;3.38;1.25;;;;;;;;;;5045864;28;20060;-85
2021/11/04 08:22:08;;;;;;;3.47;1.50;;;;;;;;;;5046084;28;20054;-85
2021/11/04 08:24:35;;;;;;;3.08;1.38;;;;;;;;;;5045192;28;20049;-85
2021/11/04 08:27:05;;;;;;;3.33;1.30;;;;;;;;;;5044756;28;20564;-87
2021/11/04 08:29:40;;;;;;;3.47;1.30;;;;;;;;;;5043926;28;20103;-87
2021/11/04 08:32:11;;;;;;;2.60;1.30;;;;;;;;;;5041990;28;20132;-88
2021/11/04 08:35:06;;;;;;;6.18;2.38;;;;;;;;;;5042860;28;20119;-86
2021/11/04 08:40:20;;;;;;;3.75;1.27;;;;;;;;;;5043144;28;20092;-85
2021/11/04 08:42:50;;;;;;;2.33;1.13;;;;;;;;;;5045881;28;20054;-86
2021/11/04 08:45:22;;;;;;;3.58;1.30;;;;;;;;;;5047607;28;20061;-85
2021/11/04 08:47:59;;;;;;;2.67;1.08;;;;;;;;;;5051990;28;20037;-85
2021/11/04 08:50:28;;;;;;;3.58;1.40;;;;;;;;;;5058079;23;20045;-68
2021/11/04 08:52:56;;;;;;;2.85;1.42;;;;;;;;;;5034157;28;20064;-65
2021/11/04 08:55:23;;;;;;;5.28;2.10;;;;;;;;;;5033598;28;20053;-69
2021/11/04 08:57:51;;;;;;;3.45;1.80;;;;;;;;;;5034336;28;20077;-65
2021/11/04 09:00:18;;;;;;;52.80;15.07;;;;;;;;;;5033815;28;20060;-58
2021/11/04 09:02:45;;;;;;;3.38;1.52;;;;;;;;;;5034077;28;20119;-59
2021/11/04 09:05:13;;;;;;;4.30;1.50;;;;;;;;;;5033900;28;20057;-54
2021/11/04 09:07:41;;;;;;;3.72;1.33;;;;;;;;;;5034024;28;20049;-59
2021/11/04 09:10:10;;;;;;;3.78;1.40;;;;;;;;;;5034253;28;20053;-61
2021/11/04 09:12:38;;;;;;;5.03;1.75;;;;;;;;;;5033604;28;20045;-64
2021/11/04 09:15:06;;;;;;;3.28;1.60;;;;;;;;;;5034011;28;20056;-62
2021/11/04 09:17:33;;;;;;;4.82;1.73;;;;;;;;;;5034120;28;20479;-61
2021/11/04 09:20:01;;;;;;;4.35;1.75;;;;;;;;;;5033858;28;20124;-55
2021/11/04 09:24:58;;;;;;;3.38;1.50;;;;;;;;;;5031526;28;20045;-59
2021/11/04 09:27:25;;;;;;;5.00;1.77;;;;;;;;;;5034045;28;20045;-58
2021/11/04 09:29:52;;;;;;;4.85;2.10;;;;;;;;;;5033449;28;20055;-58
2021/11/04 09:32:19;;;;;;;5.30;1.80;;;;;;;;;;5050470;28;20048;-60
2021/11/04 09:34:46;;;;;;;6.28;1.90;;;;;;;;;;5053658;28;20063;-61
2021/11/04 09:37:14;;;;;;;4.50;1.80;;;;;;;;;;5053867;28;20502;-58
2021/11/04 09:39:41;;;;;;;4.50;2.05;;;;;;;;;;5053915;28;20148;-60
2021/11/04 09:42:10;;;;;;;3.38;1.52;;;;;;;;;;5053562;28;20049;-62
2021/11/04 09:44:37;;;;;;;4.55;2.15;;;;;;;;;;5053180;28;20049;-60
2021/11/04 09:47:04;;;;;;;4.47;2.00;;;;;;;;;;5053142;28;20311;-61
2021/11/04 09:49:31;;;;;;;3.63;1.75;;;;;;;;;;5053551;28;20413;-61
2021/11/04 09:51:58;;;;;;;4.75;2.03;;;;;;;;;;5053047;28;20052;-60
2021/11/04 09:54:25;;;;;;;5.28;2.00;;;;;;;;;;5053236;28;20040;-62
2021/11/04 09:56:52;;;;;;;3.50;1.83;;;;;;;;;;5053000;28;20060;-61
2021/11/04 09:59:21;;;;;;;4.50;1.88;;;;;;;;;;5052858;28;20063;-60
2021/11/04 10:01:49;;;;;;;4.72;2.20;;;;;;;;;;5052902;28;20049;-59
2021/11/04 10:04:16;;;;;;;4.85;2.10;;;;;;;;;;5052592;28;20489;-59
2021/11/04 10:06:43;;;;;;;3.75;2.05;;;;;;;;;;5052769;28;20053;-60
2021/11/04 10:09:12;;;;;;;3.92;2.20;;;;;;;;;;5052777;28;20053;-61
2021/11/04 10:11:42;;;;;;;4.70;2.30;;;;;;;;;;5053022;28;20072;-60
2021/11/04 10:14:11;;;;;;;4.05;2.00;;;;;;;;;;5052966;28;20084;-59
2021/11/04 10:16:41;;;;;;;5.10;2.08;;;;;;;;;;5052687;28;20053;-61
2021/11/04 10:19:11;;;;;;;5.10;2.10;;;;;;;;;;5052626;28;20080;-61
2021/11/04 10:21:40;;;;;;;5.22;2.25;;;;;;;;;;5052983;28;20421;-61
2021/11/04 10:24:20;;;;;;;6.60;2.97;;;;;;;;;;5052372;28;20049;-61
2021/11/04 10:26:53;;;;;;;4.63;2.65;;;;;;;;;;5052527;28;20045;-61
2021/11/04 10:29:20;;;;;;;6.88;2.67;;;;;;;;;;5052482;28;20048;-62
2021/11/04 10:31:53;;;;;;;5.45;2.60;;;;;;;;;;5052557;28;20103;-61
2021/11/04 10:34:27;;;;;;;5.93;2.70;;;;;;;;;;5052845;28;20053;-61
2021/11/04 10:36:54;;;;;;;5.43;2.83;;;;;;;;;;5052861;28;20057;-59
2021/11/04 10:39:26;;;;;;;7.40;2.42;;;;;;;;;;5053008;28;20076;-62
2021/11/04 10:41:56;;;;;;;6.85;2.72;;;;;;;;;;5052943;28;20127;-61
2021/11/04 10:44:23;;;;;;;6.25;3.30;;;;;;;;;;5052760;28;20057;-59
2021/11/04 10:46:53;;;;;;;7.13;3.08;;;;;;;;;;5052196;28;20391;-62
2021/11/04 10:49:21;;;;;;;8.25;3.45;;;;;;;;;;5052264;28;20063;-60
2021/11/04 10:51:57;;;;;;;6.28;2.75;;;;;;;;;;5052257;28;20501;-61
2021/11/04 10:54:24;;;;;;;9.00;3.90;;;;;;;;;;5052211;28;20052;-60
2021/11/04 10:56:53;;;;;;;5.50;3.20;;;;;;;;;;5051936;28;20413;-61
2021/11/04 10:59:24;;;;;;;6.45;2.75;;;;;;;;;;5052018;28;20067;-62
2021/11/04 11:01:54;;;;;;;8.00;3.53;;;;;;;;;;5051672;28;20057;-62
2021/11/04 11:04:22;;;;;;;8.93;3.70;;;;;;;;;;5051782;28;20052;-62
2021/11/04 11:06:51;;;;;;;9.23;2.90;;;;;;;;;;5052119;28;20130;-61
2021/11/04 11:09:21;;;;;;;5.15;2.85;;;;;;;;;;5052114;28;20478;-62
2021/11/04 11:11:49;;;;;;;5.70;3.35;;;;;;;;;;5052301;28;20049;-62
2021/11/04 11:14:17;;;;;;;5.13;2.60;;;;;;;;;;5051547;28;20052;-62
2021/11/04 11:16:45;;;;;;;5.85;3.13;;;;;;;;;;5051422;28;20049;-62
2021/11/04 11:19:20;;;;;;;7.10;3.70;;;;;;;;;;5051716;28;20075;-61
2021/11/04 11:21:50;;;;;;;6.72;3.30;;;;;;;;;;5051717;28;20059;-62
2021/11/04 11:24:19;;;;;;;7.65;4.03;;;;;;;;;;5051943;28;20047;-62
2021/11/04 11:26:46;;;;;;;6.55;2.65;;;;;;;;;;5051732;28;20052;-62
2021/11/04 11:29:14;;;;;;;6.35;3.38;;;;;;;;;;5052254;28;20060;-62
2021/11/04 11:31:49;;;;;;;11.55;5.80;;;;;;;;;;5051636;28;20140;-62
2021/11/04 11:34:26;;;;;;;5.47;2.83;;;;;;;;;;5051587;28;20125;-62
2021/11/04 11:37:15;;;;;;;5.90;3.25;;;;;;;;;;5051684;28;20060;-62
2021/11/04 11:39:44;;;;;;;5.03;2.40;;;;;;;;;;5051553;28;20095;-62
2021/11/04 11:42:16;;;;;;;5.05;2.47;;;;;;;;;;5052168;28;20049;-62
2021/11/04 11:44:47;;;;;;;5.95;2.63;;;;;;;;;;5051530;28;20131;-60
2021/11/04 11:47:15;;;;;;;7.68;2.78;;;;;;;;;;5051607;28;20063;-62
2021/11/04 11:49:45;;;;;;;5.28;2.70;;;;;;;;;;5051610;28;20088;-62
2021/11/04 11:52:44;;;;;;;4.43;2.38;;;;;;;;;;5051550;28;20256;-62
2021/11/04 11:55:14;;;;;;;4.30;2.25;;;;;;;;;;5051409;28;20410;-62
2021/11/04 11:57:43;;;;;;;5.23;2.33;;;;;;;;;;5051705;28;20049;-62
2021/11/04 12:00:10;;;;;;;4.60;2.53;;;;;;;;;;5051266;28;20778;-63
2021/11/04 12:02:52;;;;;;;6.03;2.50;;;;;;;;;;5051651;28;20544;-63
2021/11/04 12:05:40;;;;;;;4.40;2.40;;;;;;;;;;5051290;28;20155;-62
2021/11/04 12:08:35;;;;;;;5.10;2.90;;;;;;;;;;5051662;28;20532;-61
2021/11/04 12:11:05;;;;;;;5.68;3.17;;;;;;;;;;5051440;28;20056;-61
2021/11/04 12:13:34;;;;;;;6.75;2.85;;;;;;;;;;5051926;28;20052;-62
2021/11/04 12:16:13;;;;;;;6.15;3.00;;;;;;;;;;5055101;28;20453;-62
2021/11/04 12:18:59;;;;;;;6.80;3.25;;;;;;;;;;5055055;28;20482;-61
2021/11/04 12:21:33;;;;;;;6.55;3.00;;;;;;;;;;5055292;28;20532;-62
2021/11/04 12:24:03;;;;;;;5.75;2.58;;;;;;;;;;5054854;28;20246;-60
2021/11/04 12:26:32;;;;;;;7.33;2.60;;;;;;;;;;5055081;28;20057;-61
2021/11/04 12:29:00;;;;;;;5.95;2.97;;;;;;;;;;5054435;28;20053;-61
2021/11/04 12:31:28;;;;;;;7.13;3.45;;;;;;;;;;5054830;28;20053;-62
2021/11/04 12:33:57;;;;;;;6.85;3.50;;;;;;;;;;5054871;28;20063;-62
2021/11/04 12:36:36;;;;;;;6.05;2.78;;;;;;;;;;5054496;28;20049;-62
2021/11/04 12:39:05;;;;;;;5.93;3.17;;;;;;;;;;5054773;28;20461;-62
2021/11/04 12:41:32;;;;;;;7.70;3.22;;;;;;;;;;5054963;28;20425;-63
2021/11/04 12:44:02;;;;;;;7.65;3.67;;;;;;;;;;5054900;28;20084;-63
2021/11/04 12:46:32;;;;;;;6.30;3.30;;;;;;;;;;5054391;28;20406;-63
2021/11/04 12:49:00;;;;;;;6.82;3.15;;;;;;;;;;5054830;28;20215;-63
2021/11/04 12:51:28;;;;;;;7.15;3.72;;;;;;;;;;5054431;28;20051;-62
2021/11/04 12:53:59;;;;;;;7.50;3.60;;;;;;;;;;5054255;28;20052;-62
2021/11/04 12:56:42;;;;;;;;;;;;;;;;;;5055024;28;20053;-60
2021/11/04 12:59:10;;;;;;;6.82;3.55;;;;;;;;;;5054354;28;19927;-61
2021/11/04 13:01:59;;;;;;;7.88;4.20;;;;;;;;;;5054110;28;20053;-60
2021/11/04 13:04:27;;;;;;;7.22;3.70;;;;;;;;;;5054398;28;20135;-62
2021/11/04 13:06:55;;;;;;;7.50;4.43;;;;;;;;;;5054145;28;20402;-59
2021/11/04 13:09:25;;;;;;;7.20;3.55;;;;;;;;;;5054302;28;20516;-61
2021/11/04 13:12:09;;;;;;;8.98;4.00;;;;;;;;;;5054261;28;20057;-59
2021/11/04 13:15:04;;;;;;;8.20;3.78;;;;;;;;;;5053643;28;20049;-60
2021/11/04 13:17:43;;;;;;;6.65;3.80;;;;;;;;;;5019350;28;20052;-62
2021/11/04 13:20:14;;;;;;;6.32;3.97;;;;;;;;;;5054376;28;20052;-61
2021/11/04 13:22:43;;;;;;;6.97;4.20;;;;;;;;;;5054040;28;20053;-62
2021/11/04 13:25:14;;;;;;;11.65;5.63;;;;;;;;;;5053599;28;20051;-62
2021/11/04 13:27:42;;;;;;;7.70;4.47;;;;;;;;;;5054071;28;20057;-62
2021/11/04 13:30:11;;;;;;;7.95;4.30;;;;;;;;;;5053852;28;20080;-61
2021/11/04 13:32:47;;;;;;;7.22;4.13;;;;;;;;;;5058095;28;20128;-64
2021/11/04 13:35:48;;;;;;;8.75;4.22;;;;;;;;;;5055117;28;20081;-65
2021/11/04 13:38:18;;;;;;;8.43;4.13;;;;;;;;;;5047715;28;20064;-61
2021/11/04 13:40:48;;;;;;;9.23;4.65;;;;;;;;;;5054708;28;20084;-60
2021/11/04 13:43:16;;;;;;;6.95;3.80;;;;;;;;;;5053656;28;20053;-59
2021/11/04 13:45:44;;;;;;;10.73;4.97;;;;;;;;;;5053229;28;20437;-61
2021/11/04 13:48:12;;;;;;;9.48;4.53;;;;;;;;;;5053490;28;20060;-61
2021/11/04 13:50:42;;;;;;;10.88;4.60;;;;;;;;;;5052953;28;20099;-60
2021/11/04 13:53:14;;;;;;;8.27;4.75;;;;;;;;;;5053089;28;20069;-61
2021/11/04 13:55:41;;;;;;;10.77;4.80;;;;;;;;;;5052777;28;20083;-64
2021/11/04 13:58:10;;;;;;;9.27;4.45;;;;;;;;;;5053279;28;20052;-63
2021/11/04 14:00:37;;;;;;;10.57;4.78;;;;;;;;;;5053177;28;20052;-60
2021/11/04 14:03:07;;;;;;;10.40;5.20;;;;;;;;;;5054147;28;20125;-61
2021/11/04 14:05:56;;;;;;;9.55;4.90;;;;;;;;;;5053504;28;20053;-60
2021/11/04 14:08:37;;;;;;;9.35;4.63;;;;;;;;;;5053372;28;20056;-60
2021/11/04 14:11:15;;;;;;;7.88;4.13;;;;;;;;;;5052868;28;20418;-60
2021/11/04 14:13:51;;;;;;;7.55;4.05;;;;;;;;;;5053699;28;20111;-61
2021/11/04 14:16:23;;;;;;;8.00;3.95;;;;;;;;;;5052402;28;20072;-60
2021/11/04 14:18:51;;;;;;;8.90;4.60;;;;;;;;;;5053019;28;20049;-60
2021/11/04 14:21:17;;;;;;;8.88;4.63;;;;;;;;;;5053052;28;20049;-60
2021/11/04 14:23:44;;;;;;;9.57;4.60;;;;;;;;;;5053511;28;20053;-61
2021/11/04 14:26:11;;;;;;;8.82;4.60;;;;;;;;;;5052914;28;20053;-60
2021/11/04 14:28:42;;;;;;;8.43;4.40;;;;;;;;;;5052982;28;20490;-60
2021/11/04 14:31:11;;;;;;;9.88;4.30;;;;;;;;;;5053088;28;20098;-61
2021/11/04 14:33:38;;;;;;;8.95;4.68;;;;;;;;;;5053551;28;20049;-60
2021/11/04 14:36:05;;;;;;;8.35;4.60;;;;;;;;;;5052554;28;20047;-61
2021/11/04 14:38:32;;;;;;;10.40;5.18;;;;;;;;;;5053008;28;20053;-61
2021/11/04 14:40:59;;;;;;;9.75;5.28;;;;;;;;;;5052439;28;20045;-62
2021/11/04 14:43:27;;;;;;;9.25;4.72;;;;;;;;;;5053465;28;20057;-62
2021/11/04 14:45:55;;;;;;;9.50;4.53;;;;;;;;;;5053350;28;20143;-60
2021/11/04 14:48:23;;;;;;;7.95;4.28;;;;;;;;;;5053863;28;20502;-62
2021/11/04 14:50:50;;;;;;;9.35;5.13;;;;;;;;;;5052984;28;20055;-61
2021/11/04 14:53:18;;;;;;;8.52;4.55;;;;;;;;;;5053461;28;20085;-62
2021/11/04 14:55:45;;;;;;;8.98;4.45;;;;;;;;;;5052615;28;20049;-60
2021/11/04 14:58:12;;;;;;;8.60;4.60;;;;;;;;;;5052943;28;20524;-62
2021/11/04 15:00:40;;;;;;;9.65;4.88;;;;;;;;;;5052472;28;20049;-61
2021/11/04 15:03:07;;;;;;;8.88;4.53;;;;;;;;;;5052833;28;20108;-61
2021/11/04 15:05:35;;;;;;;9.85;4.63;;;;;;;;;;5052565;28;20041;-60